West Tisbury, MA

3:31 AM EDT on August 28, 2014 (GMT -0400)
Martha's Vineyard | Change Station
CLOSE
Current Station
Airport
Location: Martha's Vineyard,
Elevation: 69 ft
Nearby Weather Stations
Active Advisory: High Surf Advisory

Elev 69 ft 41.39 °N, 70.61 °W | Updated 38 minutes ago

Partly Cloudy
Partly Cloudy
66 °F
Feels Like 66 °F
N
4
Wind Variable Wind from WSW

Today
High -- | Low -- °F
--% Chance of Precip.
Yesterday
High -- | Low -- °F
Precip. -- in
6:04 AM 7:22 PM
Waxing Crescent, 7% visible
Pressure 29.81 in
Visibility 10.0 miles
Clouds Few 6500 ft
Dew Point 64 °F
Humidity 93%
Rainfall 0.00 in
Snow Depth Not available.
UV 0 out of 12
Pollen 8.60 out of 12
Air Quality Not available.
Flu Activity Not available.
METAR KMVY 280653Z AUTO 24003KT 10SM FEW065 19/18 A2981 RMK AO2 SLP092 T01890178 TSNO PNO $

More Conditions Fewer Conditions

Pressure 29.81 in
Visibility 10.0 miles
Clouds Few 6500 ft
Dew Point 64 °F
Humidity 93%
Rainfall 0.00 in
Snow Depth Not available.
UV 0 out of 12
Pollen 8.60 out of 12
Air Quality Not available.
Flu Activity Not available.
METAR KMVY 280653Z AUTO 24003KT 10SM FEW065 19/18 A2981 RMK AO2 SLP092 T01890178 TSNO PNO $

More Conditions Fewer Conditions

10-Day Weather Forecast

Almanac

Astronomy

Aug. 28, 2014 Rise Set
Actual Time 6:04 AM EDT 7:22 PM EDT
Civil Twilight 5:35 AM EDT 7:50 PM EDT
Nautical Twilight 5:01 AM EDT 8:24 PM EDT
Astronomical Twilight 4:25 AM EDT 9:01 PM EDT
Moon 8:56 AM EDT 8:41 PM EDT
Length of Visible Light 14h 14m
Length of Day
13h 17m
Tomorrow will be 2m 38s shorter.
Waxing Crescent, 7% of the Moon is Illuminated
Today
Waxing Crescent
Sep 2
First Quarter
Sep 8
Full
Sep 15
Last Quarter
Sep 24
New

Today's Extremes

State Highs State Lows

Community

WunderPhotos

Upload Photos

1,747,912 photos uploaded!

Nearby

Air Quality

  Air Quality AQ Index Pollutant
Yesterday Good
OZONE
Thursday Good
PM2.5
Thursday Good
OZONE

Snow Depth

Station Depth Elevation
No new snow has been reported.

Earthquake Activity

City Distance Mag. Time & Date
No recent earthquake activity has been reported nearby.
Minimum magnitude displayed is 2.5.

Coastal Water Temperatures

Place Temperature
Nantucket Island, MA 73.0 °F
Woods Hole, MA 72.0 °F
Fall River, MA 73.9 °F
Boston, MA 69.1 °F

Nearby Weather Stations